Latest Weather Observations for Groote Eylandt Airport

IDD60801

Issued at 2:01 pm CST Saturday 30 May 2015 (issued every 30 minutes, with the page automatically refreshed every 10 minutes)

About weather observations | Map of weather stations | Latest weather observations for NT | Other Formats
Station Details ID: 014518 Name: GROOTE EYLANDT AIRPORT Lat: -13.97 Lon: 136.46 Height: 13.7 m
Data from the previous 72 hours. | See also: Recent months at Groote Eylandt Airport
Date/Time
CST
Temp
°C
App
Temp
°C
Dew
Point
Rel
Hum
%
Delta-T
°C
Wind Press
QNH
hPa
Press
MSL
hPa
Rain
since 9 am
mm
Dir
 
Spd
km/h
Gust
km/h
Spd
kts
Gust
kts
30/02:00pm 30.8 29.6 21.6 58 6.2 E 30 43 16 23 1011.7 1011.6 0.0
30/01:30pm 30.6 29.3 21.4 58 6.2 ENE 30 39 16 21 1012.0 1011.9 0.0
30/01:00pm 29.9 27.7 20.7 57 6.1 E 33 48 18 26 1012.7 1012.6 0.0
30/12:30pm 29.7 31.6 22.7 66 4.8 ESE 17 33 9 18 1013.2 1013.1 0.0
30/12:00pm 26.6 27.6 22.9 80 2.5 ESE 22 37 12 20 1013.8 1013.7 0.0
30/11:30am 29.1 29.6 22.6 68 4.4 E 24 33 13 18 1013.9 1013.8 0.0
30/11:00am 28.8 30.3 23.0 71 4.0 E 20 33 11 18 1014.4 1014.3 0.0
30/10:30am 27.8 30.3 23.8 79 2.8 ESE 17 26 9 14 1014.9 1014.8 0.0
30/10:00am 28.1 30.5 23.0 74 3.5 ESE 15 24 8 13 1015.1 1015.0 0.0
30/09:30am 28.1 30.5 23.7 77 3.0 ESE 17 28 9 15 1015.0 1014.9 0.0
30/09:00am 27.0 30.3 23.9 83 2.1 E 13 20 7 11 1015.0 1014.9 0.4
30/08:30am 25.8 29.9 24.0 90 1.2 SE 9 17 5 9 1014.9 1014.8 0.4
30/08:13am 25.8 29.2 24.0 90 1.2 ESE 13 19 7 10 1014.7 1014.6 0.2
30/08:00am 26.2 29.6 24.1 88 1.4 ESE 13 20 7 11 1014.4 1014.3 0.2
30/07:30am 25.4 29.9 24.0 92 1.0 SE 7 11 4 6 1014.2 1014.1 0.2
30/07:00am 25.0 29.2 24.1 95 0.6 SE 9 13 5 7 1014.1 1014.0 0.2
30/06:30am 24.9 29.5 24.2 96 0.5 SE 7 13 4 7 1013.8 1013.7 0.2
30/06:00am 24.6 29.2 24.1 97 0.3 SE 7 11 4 6 1013.6 1013.5 0.2
30/05:30am 24.4 29.0 24.1 98 0.2 ESE 7 9 4 5 1013.4 1013.3 0.2
30/05:00am 24.0 29.3 23.7 98 0.2 ESE 2 7 1 4 1013.2 1013.1 0.2
30/04:30am 23.5 28.9 23.2 98 0.2 CALM 0 6 0 3 1013.2 1013.1 0.2
30/04:00am 23.4 27.5 22.9 97 0.3 SE 6 7 3 4 1013.3 1013.2 0.2
30/03:30am 23.3 27.2 22.6 96 0.5 SE 6 7 3 4 1013.3 1013.2 0.2
30/03:00am 23.5 28.6 22.7 95 0.5 CALM 0 0 0 0 1013.4 1013.3 0.2
30/02:30am 23.8 28.9 23.3 97 0.3 ESE 2 7 1 4 1013.5 1013.4 0.2
30/02:00am 23.8 29.1 23.1 96 0.5 CALM 0 0 0 0 1013.8 1013.7 0.2
30/01:30am 23.5 27.9 22.8 96 0.5 SSE 4 7 2 4 1014.1 1014.0 0.2
30/01:00am 23.5 28.6 22.7 95 0.5 CALM 0 6 0 3 1014.1 1014.0 0.2
30/12:30am 23.7 28.8 22.7 94 0.7 CALM 0 0 0 0 1014.4 1014.3 0.2
30/12:00am 24.0 29.2 22.8 93 0.8 CALM 0 0 0 0 1014.5 1014.4 0.2
 
Date/Time
CST
Temp
°C
App
Temp
°C
Dew
Point
Rel
Hum
%
Delta-T
°C
Wind Press
QNH
hPa
Press
MSL
hPa
Rain
since 9 am
mm
Dir
 
Spd
km/h
Gust
km/h
Spd
kts
Gust
kts
29/11:30pm 24.4 28.6 23.2 93 0.8 ESE 6 9 3 5 1014.6 1014.5 0.2
29/11:00pm 24.2 28.1 23.0 93 0.8 SE 7 9 4 5 1014.7 1014.6 0.2
29/10:30pm 24.3 29.4 22.6 90 1.1 CALM 0 0 0 0 1014.7 1014.6 0.2
29/10:00pm 24.8 29.9 22.7 88 1.4 CALM 0 0 0 0 1014.9 1014.8 0.2
29/09:30pm 24.8 29.8 22.5 87 1.5 CALM 0 6 0 3 1014.7 1014.6 0.2
29/09:00pm 25.1 29.1 22.8 87 1.6 ESE 6 7 3 4 1014.6 1014.5 0.2
29/08:30pm 25.2 29.4 22.5 85 1.8 SE 4 7 2 4 1014.5 1014.4 0.2
29/08:00pm 25.6 29.6 22.7 84 2.0 SE 6 7 3 4 1014.3 1014.2 0.2
29/07:30pm 25.9 29.8 22.6 82 2.2 SE 6 9 3 5 1014.3 1014.2 0.2
29/07:00pm 26.3 30.1 22.4 79 2.6 SE 6 7 3 4 1014.0 1013.9 0.2
29/06:30pm 26.8 30.5 22.2 76 3.1 ESE 6 9 3 5 1013.8 1013.7 0.2
29/06:00pm 27.4 30.1 22.1 73 3.6 ESE 11 15 6 8 1013.6 1013.5 0.2
29/05:30pm 28.0 29.5 22.0 70 4.0 E 17 26 9 14 1013.3 1013.2 0.2
29/05:00pm 28.4 29.7 21.7 67 4.5 E 17 24 9 13 1013.0 1012.9 0.2
29/04:30pm 29.5 29.9 21.7 63 5.2 E 22 32 12 17 1012.7 1012.6 0.2
29/04:00pm 29.4 31.2 21.9 64 5.1 ESE 15 22 8 12 1012.4 1012.3 0.2
29/03:30pm 29.8 31.8 22.3 64 5.1 ESE 15 24 8 13 1012.6 1012.5 0.2
29/03:00pm 30.5 31.3 21.8 59 5.9 E 20 30 11 16 1012.5 1012.4 0.2
29/02:30pm 29.8 31.1 21.7 61 5.5 ESE 17 28 9 15 1012.8 1012.7 0.2
29/02:00pm 29.7 32.8 24.1 72 3.9 ESE 15 22 8 12 1013.0 1012.9 0.2
29/01:30pm 28.0 32.2 24.8 83 2.2 ESE 11 19 6 10 1013.3 1013.2 0.2
29/01:00pm 26.2 27.3 22.3 79 2.6 ESE 20 33 11 18 1014.0 1013.9 0.0
29/12:30pm 29.2 31.7 22.4 66 4.6 ESE 13 20 7 11 1013.9 1013.8 0.0
29/12:00pm 30.1 31.9 22.5 63 5.2 ESE 17 30 9 16 1014.2 1014.1 0.0
29/11:30am 29.2 30.8 22.2 66 4.7 ESE 17 28 9 15 1014.5 1014.4 0.0
29/11:00am 29.8 30.5 22.3 64 5.1 E 22 35 12 19 1014.7 1014.6 0.0
29/10:30am 30.9 31.2 22.2 59 5.9 E 24 41 13 22 1014.7 1014.6 0.0
29/10:00am 29.6 30.6 21.8 63 5.3 ESE 19 28 10 15 1014.9 1014.8 0.0
29/09:30am 29.1 30.4 21.6 64 5.0 ESE 17 28 9 15 1015.2 1015.1 0.0
29/09:00am 28.0 30.7 20.6 64 4.9 SE 7 15 4 8 1015.0 1014.9 0.0
29/08:30am 28.2 29.7 19.7 60 5.5 ESE 11 20 6 11 1014.8 1014.7 0.0
29/08:00am 26.5 30.1 22.1 77 3.0 SSE 6 7 3 4 1014.5 1014.4 0.0
29/07:30am 24.9 28.0 21.4 81 2.3 SSE 7 11 4 6 1013.9 1013.8 0.0
29/07:00am 24.8 27.8 21.3 81 2.3 SE 7 9 4 5 1013.5 1013.4 0.0
29/06:30am 25.0 27.8 20.9 78 2.7 SE 7 13 4 7 1013.2 1013.1 0.0
29/06:00am 25.2 27.7 21.1 78 2.7 SE 9 15 5 8 1013.0 1012.9 0.0
29/05:30am 25.0 27.7 21.3 80 2.4 SE 9 17 5 9 1012.7 1012.6 0.0
29/05:00am 24.9 27.5 21.2 80 2.4 SE 9 15 5 8 1012.7 1012.6 0.0
29/04:30am 24.9 28.0 21.4 81 2.3 SE 7 11 4 6 1012.6 1012.5 0.0
29/04:00am 25.0 27.8 21.5 81 2.3 SE 9 15 5 8 1012.7 1012.6 0.0
29/03:30am 24.9 28.1 21.6 82 2.2 SE 7 11 4 6 1012.7 1012.6 0.0
29/03:00am 25.0 28.2 21.7 82 2.2 SE 7 13 4 7 1013.0 1012.9 0.0
29/02:30am 23.9 27.6 21.4 86 1.6 SSE 4 9 2 5 1013.3 1013.2 0.0
29/02:00am 23.8 28.3 22.2 91 1.1 ESE 2 9 1 5 1013.6 1013.5 0.0
29/01:30am 24.0 28.9 22.4 91 1.1 CALM 0 0 0 0 1013.8 1013.7 0.0
29/01:00am 24.1 29.1 22.5 91 1.1 CALM 0 0 0 0 1014.0 1013.9 0.0
29/12:30am 24.4 29.5 22.7 90 1.1 CALM 0 0 0 0 1014.1 1014.0 0.0
29/12:00am 24.6 28.7 23.0 91 1.1 SSE 6 11 3 6 1014.3 1014.2 0.0
 
Date/Time
CST
Temp
°C
App
Temp
°C
Dew
Point
Rel
Hum
%
Delta-T
°C
Wind Press
QNH
hPa
Press
MSL
hPa
Rain
since 9 am
mm
Dir
 
Spd
km/h
Gust
km/h
Spd
kts
Gust
kts
28/11:30pm 24.7 29.2 22.9 90 1.2 SSE 4 7 2 4 1014.4 1014.3 0.0
28/11:00pm 24.9 29.3 22.8 88 1.4 SSE 4 7 2 4 1014.6 1014.5 0.0
28/10:30pm 25.1 29.0 23.0 88 1.4 SE 7 13 4 7 1014.6 1014.5 0.0
28/10:00pm 25.4 29.5 22.9 86 1.7 SE 6 9 3 5 1014.7 1014.6 0.0
28/09:30pm 25.7 29.2 22.8 84 2.0 ESE 9 13 5 7 1014.7 1014.6 0.0
28/09:00pm 25.7 29.2 22.8 84 2.0 ESE 9 13 5 7 1014.7 1014.6 0.0
28/08:30pm 25.5 29.3 22.8 85 1.8 SE 7 9 4 5 1014.5 1014.4 0.0
28/08:00pm 25.6 29.4 22.7 84 2.0 SE 7 11 4 6 1014.3 1014.2 0.0
28/07:30pm 25.9 29.6 22.6 82 2.2 SE 7 13 4 7 1013.9 1013.8 0.0
28/07:00pm 26.3 29.9 22.4 79 2.6 SSE 7 11 4 6 1013.6 1013.5 0.0
28/06:30pm 26.9 30.0 22.1 75 3.2 SE 9 15 5 8 1013.1 1013.0 0.0
28/06:00pm 27.5 29.5 21.5 70 4.0 ESE 13 20 7 11 1012.9 1012.8 0.0
28/05:30pm 28.1 29.3 21.4 67 4.5 ESE 17 24 9 13 1012.6 1012.5 0.0
28/05:00pm 28.9 30.3 21.1 62 5.2 ESE 15 22 8 12 1012.5 1012.4 0.0
28/04:30pm 29.6 30.6 21.0 60 5.7 ESE 17 26 9 14 1012.4 1012.3 0.0
28/04:00pm 30.1 31.0 20.9 57 6.1 E 17 26 9 14 1012.3 1012.2 0.0
28/03:30pm 29.8 31.5 20.9 59 5.9 ESE 13 28 7 15 1012.4 1012.3 0.0
28/03:00pm 29.9 30.9 21.0 59 5.9 ESE 17 24 9 13 1012.5 1012.4 0.0
28/02:30pm 30.2 30.1 20.7 56 6.3 E 22 32 12 17 1012.6 1012.5 0.0
28/02:00pm 30.3 30.6 20.8 56 6.3 E 20 33 11 18 1012.8 1012.7 0.0
28/01:30pm 30.7 31.1 20.9 56 6.5 ESE 20 33 11 18 1013.0 1012.9 0.0
28/01:00pm 30.7 31.9 20.6 54 6.7 ESE 15 22 8 12 1013.4 1013.3 0.0
28/12:30pm 30.3 31.0 20.5 55 6.5 ESE 17 26 9 14 1013.7 1013.6 0.0
28/12:00pm 30.2 30.5 20.4 55 6.5 ESE 19 30 10 16 1014.1 1014.0 0.0
28/11:30am 29.9 30.9 20.2 56 6.4 ESE 15 28 8 15 1014.5 1014.4 0.0
28/11:00am 30.1 31.6 20.6 56 6.3 ESE 13 22 7 12 1014.7 1014.6 0.0
28/10:30am 29.0 30.0 20.2 59 5.8 ESE 15 20 8 11 1014.8 1014.7 0.0
28/10:00am 27.8 29.9 20.1 63 5.0 ESE 9 15 5 8 1015.0 1014.9 0.0
28/09:30am 27.0 30.1 21.5 72 3.7 ESE 7 13 4 7 1015.1 1015.0 0.0
28/09:00am 25.8 29.4 22.3 81 2.3 SE 7 9 4 5 1014.9 1014.8 0.0
28/08:30am 24.4 28.0 22.1 87 1.5 ESE 6 9 3 5 1014.8 1014.7 0.0
28/08:00am 23.1 26.5 21.7 92 0.9 E 6 7 3 4 1014.6 1014.5 0.0
28/07:30am 21.6 24.5 20.6 94 0.6 E 6 6 3 3 1014.3 1014.2 0.0
28/07:00am 20.6 23.1 19.8 95 0.5 E 6 6 3 3 1013.9 1013.8 0.0
28/06:30am 20.4 22.7 19.4 94 0.6 ESE 6 7 3 4 1013.5 1013.4 0.0
28/06:00am 20.7 23.3 20.0 96 0.4 ESE 6 9 3 5 1013.5 1013.4 0.0
28/05:30am 20.8 24.6 20.1 96 0.4 CALM 0 0 0 0 1013.4 1013.3 0.0
28/05:00am 20.7 23.7 20.0 96 0.4 ESE 4 7 2 4 1013.2 1013.1 0.0
28/04:30am 20.8 23.4 20.5 98 0.2 E 7 11 4 6 1013.0 1012.9 0.0
28/04:00am 19.7 21.6 19.0 96 0.4 ESE 7 9 4 5 1012.9 1012.8 0.0
28/03:30am 18.7 20.3 17.9 95 0.5 ESE 6 7 3 4 1012.9 1012.8 0.0
28/03:00am 18.7 20.6 17.7 94 0.6 E 4 6 2 3 1013.0 1012.9 0.0
28/02:30am 19.0 20.6 17.8 93 0.7 E 6 6 3 3 1013.2 1013.1 0.0
28/02:00am 19.5 21.6 18.2 92 0.8 E 4 7 2 4 1013.5 1013.4 0.0
28/01:30am 20.0 23.1 18.7 92 0.8 CALM 0 0 0 0 1013.8 1013.7 0.0
28/01:00am 20.4 23.7 19.2 93 0.8 CALM 0 0 0 0 1013.9 1013.8 0.0
28/12:30am 20.4 23.7 19.2 93 0.8 CALM 0 0 0 0 1013.9 1013.8 0.0
28/12:00am 20.9 24.5 19.7 93 0.8 CALM 0 0 0 0 1014.3 1014.2 0.0
 
Date/Time
CST
Temp
°C
App
Temp
°C
Dew
Point
Rel
Hum
%
Delta-T
°C
Wind Press
QNH
hPa
Press
MSL
hPa
Rain
since 9 am
mm
Dir
 
Spd
km/h
Gust
km/h
Spd
kts
Gust
kts
27/11:30pm 21.2 24.9 20.0 93 0.8 CALM 0 0 0 0 1014.4 1014.3 0.0
27/11:00pm 21.6 25.4 20.1 91 1.0 CALM 0 0 0 0 1014.6 1014.5 0.0
27/10:30pm 22.1 26.1 20.6 91 1.0 CALM 0 0 0 0 1014.7 1014.6 0.0
27/10:00pm 22.5 26.6 20.8 90 1.1 CALM 0 0 0 0 1014.6 1014.5 0.0
27/09:30pm 23.1 26.2 21.0 88 1.4 E 6 6 3 3 1014.7 1014.6 0.0
27/09:00pm 23.7 26.9 21.2 86 1.6 E 6 7 3 4 1014.5 1014.4 0.0
27/08:30pm 24.7 27.9 21.6 83 2.1 E 7 9 4 5 1014.4 1014.3 0.0
27/08:00pm 25.2 28.3 21.5 80 2.5 E 7 9 4 5 1014.2 1014.1 0.0
27/07:30pm 25.7 28.6 21.8 79 2.6 ESE 9 13 5 7 1013.6 1013.5 0.0
27/07:00pm 26.1 28.9 21.5 76 3.1 ESE 9 13 5 7 1013.4 1013.3 0.0
27/06:30pm 26.8 28.4 21.5 72 3.5 E 15 20 8 11 1013.0 1012.9 0.0
27/06:00pm 27.5 28.7 21.5 70 4.0 E 17 20 9 11 1012.8 1012.7 0.0
27/05:30pm 28.1 29.4 21.6 68 4.4 E 17 24 9 13 1012.5 1012.4 0.0
27/05:00pm 28.8 30.2 21.8 66 4.7 ENE 17 20 9 11 1012.4 1012.3 0.0
27/04:30pm 29.7 31.7 20.8 58 5.9 ESE 11 17 6 9 1011.9 1011.8 0.0
27/04:00pm 30.7 31.6 20.0 52 7.1 E 15 22 8 12 1011.8 1011.7 0.0
27/03:30pm 30.6 30.2 19.3 51 7.4 E 20 28 11 15 1012.0 1011.9 0.0
27/03:00pm 30.8 30.5 19.2 50 7.6 E 19 28 10 15 1012.2 1012.1 0.0
27/02:30pm 31.0 30.5 18.7 48 8.0 ENE 19 26 10 14 1012.3 1012.2 0.0

Other Formats:

Comma delimited format used in spreadsheet applications
http://www.bom.gov.au/fwo/IDD60801/IDD60801.94153.axf

JavaScript Object Notation format (JSON) in row-major order
http://www.bom.gov.au/fwo/IDD60801/IDD60801.94153.json